Haddonfield, New Jersey
Current Conditions -  °F | °C
As of 9:54 PM on Thursday 27 Nov 2014 (Local Time) from KVAY Reporting Station
Clear Clear  
Wind Chill: -2°   Ceiling: Unl
Heat Index:   Visibility: 10mi
Dew Point: -4°   Wind: 6mph
Humidity: 72%   Direction: 290°WNW
Pressure: 30.1"   Gusts: NA
Location:  39.9°N, 75.03°W
Report Text: KVAY 280254Z AUTO 29005KT 10SM CLR 01/M04 A3010 RMK AO2 SLP194 T00061039 51010
Loading
Personal Weather Stations






























Interactive Weather Map New forecast layout! Learn more

10-Day Weather Forecast

Advertisements
Track Severe Weather on mobile